Time;durP1;ratioP1;P1;durP2;ratioP2;P2;SDS_P1;SDS_P2;PMS_P1;PMS_P2;Temp;Humidity;BMP_temperature;BMP_pressure;BME280_temperature;BME280_humidity;BME280_pressure;Samples;Min_cycle;Max_cycle;Signal;HPM_P1;HPM_P2
2022/08/17 00:01:25;;;;;;;;;;;28.70;79.70;;;;;;5001600;28;19933;-57
2022/08/17 00:03:53;;;;;;;;;;;28.80;79.80;;;;;;5002458;28;19929;-60
2022/08/17 00:06:26;;;;;;;;;;;28.80;79.80;;;;;;5009331;28;20038;-55
2022/08/17 00:08:54;;;;;;;;;;;28.80;79.80;;;;;;5003559;28;19932;-53
2022/08/17 00:11:25;;;;;;;;;;;28.80;79.80;;;;;;5001945;28;19933;-57
2022/08/17 00:13:54;;;;;;;;;;;28.80;79.80;;;;;;4998796;28;20420;-58
2022/08/17 00:16:31;;;;;;;;;;;28.80;79.80;;;;;;5004022;28;19932;-57
2022/08/17 00:19:21;;;;;;;;;;;28.80;79.80;;;;;;5005800;28;19929;-55
2022/08/17 00:21:50;;;;;;;;;;;28.70;79.80;;;;;;5000345;28;19929;-56
2022/08/17 00:24:37;;;;;;;;;;;28.80;79.90;;;;;;4991518;28;19945;-56
2022/08/17 00:27:04;;;;;;;;;;;28.70;79.80;;;;;;4990722;28;19930;-57
2022/08/17 00:29:31;;;;;;;;;;;28.70;79.80;;;;;;5002408;28;20317;-58
2022/08/17 00:32:00;;;;;;;;;;;28.70;79.80;;;;;;5003880;28;19929;-58
2022/08/17 00:34:47;;;;;;;;;;;28.70;79.80;;;;;;5004224;28;20305;-54
2022/08/17 00:37:14;;;;;;;;;;;28.70;79.80;;;;;;5000205;28;19944;-57
2022/08/17 00:39:41;;;;;;;;;;;28.70;79.80;;;;;;4999413;28;20349;-56
2022/08/17 00:42:15;;;;;;;;;;;28.70;79.80;;;;;;5003579;28;20320;-58
2022/08/17 00:44:43;;;;;;;;;;;28.70;79.80;;;;;;5004595;28;20301;-55
2022/08/17 00:47:10;;;;;;;;;;;28.70;79.80;;;;;;5003932;28;20405;-57
2022/08/17 00:49:37;;;;;;;;;;;28.70;79.80;;;;;;4998515;28;19926;-55
2022/08/17 00:52:09;;;;;;;;;;;28.70;79.80;;;;;;4991155;28;19952;-58
2022/08/17 00:54:40;;;;;;;;;;;28.70;79.80;;;;;;4995467;28;19930;-58
2022/08/17 00:57:11;;;;;;;;;;;28.70;79.80;;;;;;5005306;28;19929;-56
2022/08/17 00:59:41;;;;;;;;;;;28.70;79.90;;;;;;5009467;28;20004;-58
2022/08/17 01:02:11;;;;;;;;;;;28.70;79.80;;;;;;5008265;28;19937;-58
2022/08/17 01:04:38;;;;;;;;;;;28.70;79.90;;;;;;4997795;28;20304;-53
2022/08/17 01:07:06;;;;;;;;;;;28.70;79.90;;;;;;5011836;28;19933;-55
2022/08/17 01:09:33;;;;;;;;;;;28.70;79.90;;;;;;4998574;28;19941;-58
2022/08/17 01:12:00;;;;;;;;;;;28.70;79.90;;;;;;5002354;28;19936;-53
2022/08/17 01:14:27;;;;;;;;;;;28.70;79.90;;;;;;4986642;28;20401;-54
2022/08/17 01:16:55;;;;;;;;;;;28.70;79.90;;;;;;5003239;28;19929;-55
2022/08/17 01:19:29;;;;;;;;;;;28.70;79.90;;;;;;5014641;28;19940;-56
2022/08/17 01:21:59;;;;;;;;;;;28.70;79.90;;;;;;5005104;28;19925;-56
2022/08/17 01:24:27;;;;;;;;;;;28.70;79.90;;;;;;5006664;28;19925;-56
2022/08/17 01:26:54;;;;;;;;;;;28.70;79.90;;;;;;5009047;28;20380;-56
2022/08/17 01:29:24;;;;;;;;;;;28.60;79.80;;;;;;5004641;28;19930;-54
2022/08/17 01:31:53;;;;;;;;;;;28.70;79.90;;;;;;5004991;28;19929;-57
2022/08/17 01:34:20;;;;;;;;;;;28.60;79.90;;;;;;4989415;28;19940;-55
2022/08/17 01:36:48;;;;;;;;;;;28.60;79.90;;;;;;5003922;28;19925;-57
2022/08/17 01:39:38;;;;;;;;;;;28.60;79.90;;;;;;5012062;28;19938;-58
2022/08/17 01:42:11;;;;;;;;;;;28.60;79.90;;;;;;5001186;28;19937;-57
2022/08/17 01:44:40;;;;;;;;;;;28.60;79.90;;;;;;5003935;28;19930;-57
2022/08/17 01:47:07;;;;;;;;;;;28.60;80.40;;;;;;5010432;28;19930;-55
2022/08/17 01:49:34;;;;;;;;;;;28.60;79.90;;;;;;5004872;28;19929;-59
2022/08/17 01:52:06;;;;;;;;;;;28.60;79.90;;;;;;4994390;28;20432;-57
2022/08/17 01:54:33;;;;;;;;;;;28.60;79.90;;;;;;5007993;28;19929;-52
2022/08/17 01:57:01;;;;;;;;;;;28.60;79.90;;;;;;5008203;28;19929;-52
2022/08/17 01:59:28;;;;;;;;;;;28.60;79.90;;;;;;5002345;28;19933;-54
2022/08/17 02:01:55;;;;;;;;;;;28.60;80.00;;;;;;5002977;28;19930;-58
2022/08/17 02:04:22;;;;;;;;;;;28.60;79.90;;;;;;5001868;28;19934;-52
2022/08/17 02:06:50;;;;;;;;;;;28.60;79.90;;;;;;5007820;28;19929;-54
2022/08/17 02:09:22;;;;;;;;;;;28.60;79.90;;;;;;5004650;28;19933;-54
2022/08/17 02:11:53;;;;;;;;;;;28.60;79.90;;;;;;5003521;28;19933;-58
2022/08/17 02:14:22;;;;;;;;;;;28.60;80.00;;;;;;4982623;28;20634;-59
2022/08/17 02:16:49;;;;;;;;;;;28.60;79.90;;;;;;5007429;28;19929;-57
2022/08/17 02:19:16;;;;;;;;;;;28.60;79.90;;;;;;4999352;28;20305;-56
2022/08/17 02:21:45;;;;;;;;;;;28.60;80.00;;;;;;5006437;28;19930;-57
2022/08/17 02:24:18;;;;;;;;;;;28.60;80.00;;;;;;5004508;28;19941;-57
2022/08/17 02:27:05;;;;;;;;;;;28.50;79.90;;;;;;5004228;28;19949;-57
2022/08/17 02:29:32;;;;;;;;;;;28.60;80.00;;;;;;4990487;28;19937;-56
2022/08/17 02:32:00;;;;;;;;;;;28.50;79.90;;;;;;5004525;28;19929;-54
2022/08/17 02:34:27;;;;;;;;;;;28.50;79.90;;;;;;5007162;28;20286;-56
2022/08/17 02:36:54;;;;;;;;;;;28.50;79.90;;;;;;5005464;28;20312;-54
2022/08/17 02:39:22;;;;;;;;;;;28.50;79.90;;;;;;5006721;28;19934;-56
2022/08/17 02:41:49;;;;;;;;;;;28.50;80.00;;;;;;4980363;28;20322;-57
2022/08/17 02:44:16;;;;;;;;;;;28.50;80.00;;;;;;4982090;28;20483;-57
2022/08/17 02:47:03;;;;;;;;;;;28.50;80.00;;;;;;4994063;28;19929;-53
2022/08/17 02:49:30;;;;;;;;;;;28.50;80.00;;;;;;4996971;28;19940;-56
2022/08/17 02:51:57;;;;;;;;;;;28.50;80.00;;;;;;5004461;28;19929;-58
2022/08/17 02:54:25;;;;;;;;;;;28.50;80.00;;;;;;5006652;28;19936;-57
2022/08/17 02:57:08;;;;;;;;;;;28.50;80.00;;;;;;5004372;28;19937;-57
2022/08/17 02:59:36;;;;;;;;;;;28.50;80.00;;;;;;5008431;28;19925;-58
2022/08/17 03:02:05;;;;;;;;;;;28.50;80.00;;;;;;5006334;28;20405;-56
2022/08/17 03:04:32;;;;;;;;;;;28.50;80.00;;;;;;5002454;28;19926;-55
2022/08/17 03:07:01;;;;;;;;;;;28.50;80.00;;;;;;5001438;28;19936;-57
2022/08/17 03:09:29;;;;;;;;;;;28.50;80.00;;;;;;5000626;28;20424;-59
2022/08/17 03:12:06;;;;;;;;;;;28.50;80.00;;;;;;5004672;28;19936;-57
2022/08/17 03:14:35;;;;;;;;;;;28.50;80.10;;;;;;4996717;28;20284;-57
2022/08/17 03:17:08;;;;;;;;;;;28.50;80.10;;;;;;5006404;28;19930;-54
2022/08/17 03:19:36;;;;;;;;;;;28.50;80.10;;;;;;5003582;28;19945;-55
2022/08/17 03:22:09;;;;;;;;;;;28.50;80.10;;;;;;4994686;28;19929;-54
2022/08/17 03:24:57;;;;;;;;;;;28.40;80.00;;;;;;5001310;28;19925;-54
2022/08/17 03:27:24;;;;;;;;;;;28.50;80.10;;;;;;5007047;28;19934;-55
2022/08/17 03:29:51;;;;;;;;;;;28.40;80.00;;;;;;4998929;28;19929;-59
2022/08/17 03:32:19;;;;;;;;;;;28.50;80.10;;;;;;4997401;28;20390;-57
2022/08/17 03:34:46;;;;;;;;;;;28.40;80.00;;;;;;4999999;28;19936;-56
2022/08/17 03:37:13;;;;;;;;;;;28.40;80.10;;;;;;5003112;28;19934;-54
2022/08/17 03:39:41;;;;;;;;;;;28.40;80.10;;;;;;4989536;28;19936;-54
2022/08/17 03:42:11;;;;;;;;;;;28.40;80.10;;;;;;5004400;28;19936;-54
2022/08/17 03:44:59;;;;;;;;;;;28.40;80.10;;;;;;4997010;28;20320;-56
2022/08/17 03:58:30;;;;;;;;;;;28.40;80.10;;;;;;5003576;28;19937;-54
2022/08/17 04:00:58;;;;;;;;;;;28.40;80.10;;;;;;4977066;28;19937;-59
2022/08/17 04:03:25;;;;;;;;;;;28.40;80.20;;;;;;5001773;28;19929;-53
2022/08/17 04:05:53;;;;;;;;;;;28.30;80.10;;;;;;5013679;28;19929;-54
2022/08/17 04:08:20;;;;;;;;;;;28.40;80.20;;;;;;5015509;28;19940;-57
2022/08/17 04:10:47;;;;;;;;;;;28.40;80.20;;;;;;5018319;28;19929;-59
2022/08/17 04:13:14;;;;;;;;;;;28.40;80.20;;;;;;5009075;28;20280;-59
2022/08/17 04:15:51;;;;;;;;;;;28.40;80.20;;;;;;5012525;28;19930;-58
2022/08/17 04:18:18;;;;;;;;;;;28.40;80.20;;;;;;5012804;28;19926;-57
2022/08/17 04:20:45;;;;;;;;;;;28.40;80.20;;;;;;5010527;28;19930;-55
2022/08/17 04:23:14;;;;;;;;;;;28.30;80.70;;;;;;5008737;28;20412;-57
2022/08/17 04:25:45;;;;;;;;;;;28.30;80.10;;;;;;5015808;28;19936;-58
2022/08/17 04:28:12;;;;;;;;;;;28.30;80.10;;;;;;5012014;28;19930;-54
2022/08/17 04:30:43;;;;;;;;;;;28.40;80.20;;;;;;5008694;28;19930;-53
2022/08/17 04:33:12;;;;;;;;;;;28.30;80.10;;;;;;5010274;28;19937;-53
2022/08/17 04:35:41;;;;;;;;;;;28.30;80.10;;;;;;5006465;28;20044;-60
2022/08/17 04:38:11;;;;;;;;;;;28.30;80.10;;;;;;5006442;28;19952;-57
2022/08/17 04:43:25;;;;;;;;;;;28.30;80.10;;;;;;4999452;28;19934;-55
2022/08/17 04:45:54;;;;;;;;;;;28.30;80.10;;;;;;5002984;28;20286;-56
2022/08/17 04:48:24;;;;;;;;;;;28.30;80.10;;;;;;5004044;28;20349;-54
2022/08/17 04:51:02;;;;;;;;;;;28.30;80.20;;;;;;5002556;28;19937;-57
2022/08/17 04:53:29;;;;;;;;;;;28.30;80.10;;;;;;5001269;28;19936;-59
2022/08/17 04:55:57;;;;;;;;;;;28.30;80.20;;;;;;5045809;22;19925;-51
2022/08/17 04:58:25;;;;;;;;;;;28.30;80.20;;;;;;5023841;28;19936;-53
2022/08/17 05:00:52;;;;;;;;;;;28.30;80.20;;;;;;5027548;28;19940;-56
2022/08/17 05:03:19;;;;;;;;;;;28.30;80.20;;;;;;5027801;28;20028;-57
2022/08/17 05:05:48;;;;;;;;;;;28.30;80.20;;;;;;5028877;28;19925;-57
2022/08/17 05:08:17;;;;;;;;;;;28.30;80.20;;;;;;5029843;28;20316;-52
2022/08/17 05:10:45;;;;;;;;;;;28.30;80.20;;;;;;5026186;28;20387;-58
2022/08/17 05:13:16;;;;;;;;;;;28.30;80.20;;;;;;5029025;28;19929;-53
2022/08/17 05:15:45;;;;;;;;;;;28.30;80.20;;;;;;5026413;28;19929;-55
2022/08/17 05:18:14;;;;;;;;;;;28.30;80.20;;;;;;5024613;28;19929;-58
2022/08/17 05:20:42;;;;;;;;;;;28.30;80.30;;;;;;5019903;28;19932;-56
2022/08/17 05:23:11;;;;;;;;;;;28.30;80.30;;;;;;5022597;28;19936;-56
2022/08/17 05:25:40;;;;;;;;;;;28.30;80.30;;;;;;5019736;28;19936;-55
2022/08/17 05:28:08;;;;;;;;;;;28.30;80.30;;;;;;5021386;28;19925;-60
2022/08/17 05:30:36;;;;;;;;;;;28.20;80.10;;;;;;5030052;28;19925;-54
2022/08/17 05:33:05;;;;;;;;;;;28.30;80.30;;;;;;5025157;28;19929;-58
2022/08/17 05:35:34;;;;;;;;;;;28.30;80.30;;;;;;5027187;28;19932;-56
2022/08/17 05:38:01;;;;;;;;;;;28.20;80.10;;;;;;5026279;28;19929;-54
2022/08/17 05:40:28;;;;;;;;;;;28.30;80.30;;;;;;5031490;28;19933;-56
2022/08/17 05:43:03;;;;;;;;;;;28.20;80.20;;;;;;5027600;28;19948;-55
2022/08/17 05:45:31;;;;;;;;;;;28.20;80.20;;;;;;5028449;28;19928;-56
2022/08/17 05:48:18;;;;;;;;;;;28.30;80.30;;;;;;5029184;28;19933;-60
2022/08/17 05:50:59;;;;;;;;;;;28.20;80.20;;;;;;5025093;28;19929;-57
2022/08/17 05:53:36;;;;;;;;;;;28.20;80.20;;;;;;5022946;28;19932;-53
2022/08/17 05:56:07;;;;;;;;;;;28.30;80.30;;;;;;5026895;28;19929;-57
2022/08/17 05:59:16;;;;;;;;;;;28.20;80.20;;;;;;5021959;28;19928;-54
2022/08/17 06:01:54;;;;;;;;;;;28.20;80.20;;;;;;5029027;28;20552;-54
2022/08/17 06:04:35;;;;;;;;;;;28.20;80.20;;;;;;5023800;28;19940;-52
2022/08/17 06:07:14;;;;;;;;;;;28.20;80.20;;;;;;5026953;28;19936;-53
2022/08/17 06:09:48;;;;;;;;;;;28.20;80.20;;;;;;5022734;28;19932;-54
2022/08/17 06:12:25;;;;;;;;;;;28.20;80.20;;;;;;5027650;28;19929;-50
2022/08/17 06:15:12;;;;;;;;;;;28.20;80.20;;;;;;5020514;28;19940;-51
2022/08/17 06:17:41;;;;;;;;;;;28.20;80.20;;;;;;5024063;28;19936;-52
2022/08/17 06:20:10;;;;;;;;;;;28.20;80.30;;;;;;5028518;28;19947;-53
2022/08/17 06:22:41;;;;;;;;;;;28.20;80.20;;;;;;5016827;28;20338;-56
2022/08/17 06:25:14;;;;;;;;;;;28.20;80.30;;;;;;5022821;28;20336;-54
2022/08/17 06:28:16;;;;;;;;;;;28.20;80.30;;;;;;5011052;28;19925;-56
2022/08/17 06:30:57;;;;;;;;;;;28.20;80.30;;;;;;4947203;28;19937;-53
2022/08/17 06:33:31;;;;;;;;;;;28.20;80.80;;;;;;5016700;28;19929;-52
2022/08/17 06:36:07;;;;;;;;;;;28.20;80.30;;;;;;5028694;28;19933;-57
2022/08/17 06:38:45;;;;;;;;;;;28.20;80.30;;;;;;5017375;28;20385;-54
2022/08/17 06:41:21;;;;;;;;;;;28.20;80.30;;;;;;5019088;28;19937;-55
2022/08/17 06:44:00;;;;;;;;;;;28.20;80.30;;;;;;5026893;28;19948;-56
2022/08/17 06:46:47;;;;;;;;;;;28.20;80.30;;;;;;5023290;28;19933;-56
2022/08/17 06:49:14;;;;;;;;;;;28.20;80.40;;;;;;5021976;28;19936;-55
2022/08/17 06:51:49;;;;;;;;;;;28.20;80.30;;;;;;5020998;28;20388;-57
2022/08/17 06:54:35;;;;;;;;;;;28.20;80.40;;;;;;5026464;28;19936;-57
2022/08/17 06:57:14;;;;;;;;;;;28.20;80.40;;;;;;5016482;28;19925;-54
2022/08/17 06:59:56;;;;;;;;;;;28.20;80.30;;;;;;5024407;28;19933;-53
2022/08/17 07:02:37;;;;;;;;;;;28.10;80.30;;;;;;5025994;28;20412;-56
2022/08/17 07:05:21;;;;;;;;;;;28.20;80.40;;;;;;5021118;28;19933;-55
2022/08/17 07:08:00;;;;;;;;;;;28.20;80.40;;;;;;5026026;28;19925;-55
2022/08/17 07:10:36;;;;;;;;;;;28.20;80.40;;;;;;5021214;28;19958;-54
2022/08/17 07:13:18;;;;;;;;;;;28.20;80.40;;;;;;5021329;28;19933;-48
2022/08/17 07:15:46;;;;;;;;;;;28.10;80.30;;;;;;5022444;28;19936;-51
2022/08/17 07:18:13;;;;;;;;;;;28.10;80.40;;;;;;5024086;28;19936;-53
2022/08/17 07:20:42;;;;;;;;;;;28.10;80.30;;;;;;5021339;28;20308;-54
2022/08/17 07:23:32;;;;;;;;;;;28.10;80.40;;;;;;5023549;28;20339;-57
2022/08/17 07:26:06;;;;;;;;;;;28.10;80.30;;;;;;5020830;28;20360;-55
2022/08/17 07:28:34;;;;;;;;;;;28.10;80.40;;;;;;5017344;28;19936;-57
2022/08/17 07:31:03;;;;;;;;;;;28.10;80.40;;;;;;5018309;28;19929;-57
2022/08/17 07:33:32;;;;;;;;;;;28.10;80.40;;;;;;5025711;28;20467;-56
2022/08/17 07:36:01;;;;;;;;;;;28.10;80.40;;;;;;5026717;28;20040;-54
2022/08/17 07:38:30;;;;;;;;;;;28.10;80.40;;;;;;5027145;28;19929;-54
2022/08/17 07:41:00;;;;;;;;;;;28.10;80.40;;;;;;5026073;28;19933;-55
2022/08/17 07:43:28;;;;;;;;;;;28.10;80.40;;;;;;5027723;28;20404;-52
2022/08/17 07:49:02;;;;;;;;;;;28.10;80.40;;;;;;5022930;28;19936;-51
2022/08/17 07:51:31;;;;;;;;;;;28.10;80.40;;;;;;5023707;28;19937;-55
2022/08/17 07:54:21;;;;;;;;;;;28.10;80.50;;;;;;5027195;28;19929;-56
2022/08/17 07:56:53;;;;;;;;;;;28.10;80.40;;;;;;5024760;28;19937;-52
2022/08/17 07:59:20;;;;;;;;;;;28.10;80.50;;;;;;5025904;28;19929;-53
2022/08/17 08:01:56;;;;;;;;;;;28.10;80.40;;;;;;5025831;28;20411;-53
2022/08/17 08:04:33;;;;;;;;;;;28.10;80.40;;;;;;5028128;28;19936;-57
2022/08/17 08:07:20;;;;;;;;;;;28.10;80.50;;;;;;5030239;28;19929;-55
2022/08/17 08:09:59;;;;;;;;;;;28.10;80.40;;;;;;5026296;28;19948;-54
2022/08/17 08:12:38;;;;;;;;;;;28.10;80.40;;;;;;5030007;28;19960;-56
2022/08/17 08:15:12;;;;;;;;;;;28.10;80.50;;;;;;5029600;28;19933;-51
2022/08/17 08:17:45;;;;;;;;;;;28.10;80.50;;;;;;5023908;28;19933;-55
2022/08/17 08:20:12;;;;;;;;;;;28.10;80.50;;;;;;5029715;28;19929;-51
2022/08/17 08:23:09;;;;;;;;;;;28.10;80.50;;;;;;5028801;28;20416;-57
2022/08/17 08:25:45;;;;;;;;;;;28.10;80.40;;;;;;5019508;28;19939;-53
2022/08/17 08:28:32;;;;;;;;;;;28.10;80.50;;;;;;5029259;28;19933;-56
2022/08/17 08:31:08;;;;;;;;;;;28.10;80.50;;;;;;5022294;28;19933;-56
2022/08/17 08:33:55;;;;;;;;;;;28.10;80.50;;;;;;5017309;28;19925;-55
2022/08/17 08:36:22;;;;;;;;;;;28.10;80.40;;;;;;5032609;28;19929;-59
2022/08/17 08:39:16;;;;;;;;;;;28.00;80.40;;;;;;5034660;28;19933;-55
2022/08/17 08:41:47;;;;;;;;;;;28.10;80.50;;;;;;5026558;28;19925;-59
2022/08/17 08:44:20;;;;;;;;;;;28.10;80.50;;;;;;5015349;28;19983;-54
2022/08/17 08:47:17;;;;;;;;;;;28.10;80.50;;;;;;5029657;28;19948;-57
2022/08/17 08:50:22;;;;;;;;;;;28.10;80.50;;;;;;5027977;28;19929;-51
2022/08/17 08:53:23;;;;;;;;;;;28.10;80.60;;;;;;4945486;28;19931;-54
2022/08/17 08:55:59;;;;;;;;;;;28.00;80.50;;;;;;4944031;28;19935;-53
2022/08/17 08:58:49;;;;;;;;;;;28.00;80.60;;;;;;4988885;28;19932;-54
2022/08/17 09:01:26;;;;;;;;;;;28.00;80.60;;;;;;5025949;28;19937;-51
2022/08/17 09:04:02;;;;;;;;;;;28.10;80.60;;;;;;5026627;28;19929;-55
2022/08/17 09:07:01;;;;;;;;;;;28.00;80.60;;;;;;5019480;28;19929;-55
2022/08/17 09:09:36;;;;;;;;;;;28.00;80.50;;;;;;5028955;28;20043;-56
2022/08/17 09:12:16;;;;;;;;;;;28.10;80.70;;;;;;5028992;28;19925;-51
2022/08/17 09:14:50;;;;;;;;;;;28.00;80.60;;;;;;5022725;28;19929;-54
2022/08/17 09:17:24;;;;;;;;;;;28.00;80.60;;;;;;5023621;28;20034;-54
2022/08/17 09:19:56;;;;;;;;;;;28.00;80.60;;;;;;5028560;28;19948;-54
2022/08/17 09:22:30;;;;;;;;;;;28.00;80.60;;;;;;5027941;28;20324;-54
2022/08/17 09:25:01;;;;;;;;;;;28.00;80.60;;;;;;5008136;28;19936;-51
2022/08/17 09:27:33;;;;;;;;;;;28.00;80.60;;;;;;5026320;28;19936;-50
2022/08/17 09:30:03;;;;;;;;;;;28.00;80.60;;;;;;5023384;28;19929;-51
2022/08/17 09:32:39;;;;;;;;;;;28.10;80.60;;;;;;5027525;28;19936;-59
2022/08/17 09:35:22;;;;;;;;;;;28.10;80.60;;;;;;5024661;28;20567;-55
2022/08/17 09:37:58;;;;;;;;;;;28.10;80.60;;;;;;5025458;28;19929;-55
2022/08/17 09:40:25;;;;;;;;;;;28.10;80.60;;;;;;5023574;28;19930;-52
2022/08/17 09:43:03;;;;;;;;;;;28.10;80.50;;;;;;4995628;28;19925;-57
2022/08/17 09:45:34;;;;;;;;;;;28.10;80.50;;;;;;5024578;28;20451;-56
2022/08/17 09:48:06;;;;;;;;;;;28.10;80.50;;;;;;5006883;28;20306;-54
2022/08/17 09:50:42;;;;;;;;;;;28.10;80.50;;;;;;5028971;28;19929;-50
2022/08/17 09:53:30;;;;;;;;;;;28.10;80.60;;;;;;5011125;28;20360;-54
2022/08/17 09:56:05;;;;;;;;;;;28.10;80.60;;;;;;5021746;28;19997;-55
2022/08/17 09:58:41;;;;;;;;;;;28.10;80.60;;;;;;5025900;28;19941;-53
2022/08/17 10:01:47;;;;;;;;;;;28.10;80.60;;;;;;5027949;28;19929;-54
2022/08/17 10:04:33;;;;;;;;;;;28.10;80.70;;;;;;4945423;28;20420;-53
2022/08/17 10:07:11;;;;;;;;;;;28.10;80.70;;;;;;4947780;28;20430;-54
2022/08/17 10:09:47;;;;;;;;;;;28.10;80.70;;;;;;4942936;28;19926;-57
2022/08/17 10:12:23;;;;;;;;;;;28.10;80.70;;;;;;4944990;28;20442;-55
2022/08/17 10:15:03;;;;;;;;;;;28.10;80.70;;;;;;4945264;28;19927;-53
2022/08/17 10:17:55;;;;;;;;;;;28.10;80.70;;;;;;4952582;28;19934;-52
2022/08/17 10:20:26;;;;;;;;;;;28.10;80.70;;;;;;4952436;28;20417;-55
2022/08/17 10:28:51;;;;;;;;;;;28.10;80.80;;;;;;4944890;28;19942;-54
2022/08/17 10:31:38;;;;;;;;;;;28.10;80.80;;;;;;4930086;28;19930;-55
2022/08/17 10:34:05;;;;;;;;;;;28.10;80.80;;;;;;4944237;28;19949;-56
2022/08/17 10:36:37;;;;;;;;;;;28.10;80.80;;;;;;5026004;28;19933;-55
2022/08/17 10:39:21;;;;;;;;;;;28.10;80.90;;;;;;5020567;28;20321;-55
2022/08/17 10:41:51;;;;;;;;;;;28.10;80.80;;;;;;5019801;28;20251;-54
2022/08/17 10:44:38;;;;;;;;;;;28.10;80.80;;;;;;5025512;28;20300;-52
2022/08/17 10:47:13;;;;;;;;;;;28.10;80.80;;;;;;5024790;28;19925;-57
2022/08/17 10:49:46;;;;;;;;;;;28.10;80.80;;;;;;5028510;28;19933;-56
2022/08/17 10:52:26;;;;;;;;;;;28.10;80.80;;;;;;5019222;28;20423;-56
2022/08/17 10:54:55;;;;;;;;;;;28.10;80.80;;;;;;5026822;28;20388;-51
2022/08/17 10:57:30;;;;;;;;;;;28.10;80.80;;;;;;5022491;28;19936;-53
2022/08/17 11:00:13;;;;;;;;;;;28.10;80.80;;;;;;5030037;28;19929;-57
2022/08/17 11:02:47;;;;;;;;;;;28.10;80.90;;;;;;5025117;28;19929;-57
2022/08/17 11:05:15;;;;;;;;;;;28.10;80.80;;;;;;5029316;28;20472;-53
2022/08/17 11:07:53;;;;;;;;;;;28.10;80.80;;;;;;5031704;28;20036;-53
2022/08/17 11:10:35;;;;;;;;;;;28.10;80.90;;;;;;5020371;28;19955;-55
2022/08/17 11:13:11;;;;;;;;;;;28.10;80.80;;;;;;5028795;28;19925;-55
2022/08/17 11:18:18;;;;;;;;;;;28.10;80.80;;;;;;5050684;28;19936;-56
2022/08/17 11:20:55;;;;;;;;;;;28.10;81.30;;;;;;5049863;28;19933;-58
2022/08/17 11:23:40;;;;;;;;;;;28.10;80.70;;;;;;5052432;28;20007;-59
2022/08/17 11:26:45;;;;;;;;;;;28.10;80.80;;;;;;5049667;28;19991;-59
2022/08/17 11:29:18;;;;;;;;;;;28.10;80.70;;;;;;5026669;28;19929;-59
2022/08/17 11:31:59;;;;;;;;;;;28.10;80.70;;;;;;5055119;28;19932;-61
2022/08/17 11:34:27;;;;;;;;;;;28.10;80.80;;;;;;5058091;28;19929;-58
2022/08/17 11:37:03;;;;;;;;;;;28.10;80.80;;;;;;5045292;28;19929;-59
2022/08/17 11:39:30;;;;;;;;;;;28.10;80.70;;;;;;5051528;28;19936;-58
2022/08/17 11:42:01;;;;;;;;;;;28.10;80.80;;;;;;5049083;28;19936;-61
2022/08/17 11:44:40;;;;;;;;;;;28.20;80.80;;;;;;5047483;28;19936;-59
2022/08/17 11:52:57;;;;;;;;;;;28.20;80.90;;;;;;5044582;28;19940;-59
2022/08/17 11:55:27;;;;;;;;;;;28.10;80.80;;;;;;5045208;28;19936;-58
2022/08/17 11:58:27;;;;;;;;;;;28.20;80.90;;;;;;5051066;28;19929;-58
2022/08/17 12:00:56;;;;;;;;;;;28.10;80.90;;;;;;5047288;28;19954;-58
2022/08/17 12:03:30;;;;;;;;;;;28.10;80.90;;;;;;5045483;28;19936;-59
2022/08/17 12:06:09;;;;;;;;;;;28.20;81.00;;;;;;5047191;28;19933;-57
2022/08/17 12:08:42;;;;;;;;;;;28.10;80.90;;;;;;5047465;28;19928;-57
2022/08/17 12:11:19;;;;;;;;;;;28.10;80.90;;;;;;5051773;28;19948;-54
2022/08/17 12:14:07;;;;;;;;;;;28.20;81.00;;;;;;5058253;28;19935;-55
2022/08/17 12:16:38;;;;;;;;;;;28.20;81.00;;;;;;5053501;28;19928;-60
2022/08/17 12:19:15;;;;;;;;;;;28.20;81.00;;;;;;5051785;28;20399;-56
2022/08/17 12:21:56;;;;;;;;;;;28.20;81.00;;;;;;5052538;28;19936;-59
2022/08/17 12:24:28;;;;;;;;;;;28.20;81.00;;;;;;5042413;28;19933;-60
2022/08/17 12:26:57;;;;;;;;;;;28.20;81.60;;;;;;5049264;28;20355;-58
2022/08/17 12:29:25;;;;;;;;;;;28.20;81.00;;;;;;5046543;28;19929;-57
2022/08/17 12:32:05;;;;;;;;;;;28.20;81.10;;;;;;5038762;28;20411;-57
2022/08/17 12:34:41;;;;;;;;;;;28.20;81.10;;;;;;5035665;28;19925;-57
2022/08/17 12:37:17;;;;;;;;;;;28.20;81.10;;;;;;5048528;28;20443;-59
2022/08/17 12:40:02;;;;;;;;;;;28.20;81.10;;;;;;5046282;28;19950;-59
2022/08/17 12:42:31;;;;;;;;;;;28.20;81.10;;;;;;5048162;28;19935;-59
2022/08/17 12:44:59;;;;;;;;;;;28.20;81.20;;;;;;5045185;28;19930;-58
2022/08/17 12:47:28;;;;;;;;;;;28.20;81.70;;;;;;5051932;28;19936;-58
2022/08/17 12:50:07;;;;;;;;;;;28.30;81.20;;;;;;5052114;28;19924;-58
2022/08/17 12:52:54;;;;;;;;;;;28.30;81.10;;;;;;5050707;28;19929;-58
2022/08/17 12:55:28;;;;;;;;;;;28.30;81.20;;;;;;5070937;28;19948;-59
2022/08/17 12:58:00;;;;;;;;;;;28.30;81.10;;;;;;5053148;28;19929;-59
2022/08/17 13:00:33;;;;;;;;;;;28.30;81.10;;;;;;5054138;28;20324;-58
2022/08/17 13:03:02;;;;;;;;;;;28.30;81.00;;;;;;5060418;28;20395;-56
2022/08/17 13:05:29;;;;;;;;;;;28.40;81.00;;;;;;5050197;28;20309;-59
2022/08/17 13:07:57;;;;;;;;;;;28.40;81.50;;;;;;5052958;28;19932;-58
2022/08/17 13:10:26;;;;;;;;;;;28.40;80.90;;;;;;5048804;28;19929;-59
2022/08/17 13:13:03;;;;;;;;;;;28.40;80.80;;;;;;5045326;28;20304;-59
2022/08/17 13:15:36;;;;;;;;;;;28.50;80.90;;;;;;5054669;28;19936;-59
2022/08/17 13:18:29;;;;;;;;;;;28.50;80.80;;;;;;5050363;28;19933;-58
2022/08/17 13:20:57;;;;;;;;;;;28.50;80.80;;;;;;5054024;28;19929;-58
2022/08/17 13:23:28;;;;;;;;;;;28.50;80.80;;;;;;5051667;28;19940;-57
2022/08/17 13:25:56;;;;;;;;;;;28.50;80.60;;;;;;5054376;28;19929;-58
2022/08/17 13:28:26;;;;;;;;;;;28.60;80.60;;;;;;5062674;28;19929;-58
2022/08/17 13:31:22;;;;;;;;;;;28.60;80.50;;;;;;5055941;28;19933;-60
2022/08/17 13:33:50;;;;;;;;;;;28.60;80.50;;;;;;5058337;28;19939;-59
2022/08/17 13:36:29;;;;;;;;;;;28.60;80.40;;;;;;5061296;28;19929;-59
2022/08/17 13:39:11;;;;;;;;;;;28.70;80.40;;;;;;5054548;28;19932;-59
2022/08/17 13:41:38;;;;;;;;;;;28.70;80.30;;;;;;5052391;28;20007;-58
2022/08/17 13:44:26;;;;;;;;;;;28.80;80.30;;;;;;5054566;28;19924;-58
2022/08/17 13:46:54;;;;;;;;;;;28.80;80.20;;;;;;5061175;28;19929;-59
2022/08/17 13:49:23;;;;;;;;;;;28.80;80.20;;;;;;5054084;28;19932;-59
2022/08/17 13:52:30;;;;;;;;;;;28.80;80.10;;;;;;5049346;28;20289;-57
2022/08/17 13:54:59;;;;;;;;;;;28.80;80.10;;;;;;5049548;28;19936;-62
2022/08/17 13:57:26;;;;;;;;;;;28.80;80.10;;;;;;5052232;28;19925;-59
2022/08/17 14:00:05;;;;;;;;;;;28.80;80.10;;;;;;5055743;28;19936;-60
2022/08/17 14:02:34;;;;;;;;;;;28.80;80.70;;;;;;5059226;28;19929;-58
2022/08/17 14:05:02;;;;;;;;;;;28.80;80.10;;;;;;5059249;28;19929;-60
2022/08/17 14:07:34;;;;;;;;;;;28.80;80.10;;;;;;5063841;28;19925;-59
2022/08/17 14:10:05;;;;;;;;;;;28.80;80.20;;;;;;5060260;28;19929;-59
2022/08/17 14:12:33;;;;;;;;;;;28.80;80.10;;;;;;5052069;28;19924;-58
2022/08/17 14:15:00;;;;;;;;;;;28.90;80.10;;;;;;5057900;28;19939;-59
2022/08/17 14:17:28;;;;;;;;;;;28.90;80.00;;;;;;5039853;28;19933;-59
2022/08/17 14:19:56;;;;;;;;;;;29.00;79.80;;;;;;5054971;28;19929;-59
2022/08/17 14:22:29;;;;;;;;;;;29.10;79.70;;;;;;5049732;28;19932;-58
2022/08/17 14:24:57;;;;;;;;;;;29.10;79.60;;;;;;5053170;28;19940;-57
2022/08/17 14:27:26;;;;;;;;;;;29.20;79.50;;;;;;5052188;28;19936;-57
2022/08/17 14:29:55;;;;;;;;;;;29.20;79.40;;;;;;5055410;28;19928;-58
2022/08/17 14:32:24;;;;;;;;;;;29.30;79.40;;;;;;5052711;28;20343;-59
2022/08/17 14:34:52;;;;;;;;;;;29.30;79.40;;;;;;5048735;28;19999;-58
2022/08/17 14:37:19;;;;;;;;;;;29.40;79.30;;;;;;5056296;28;19940;-57
2022/08/17 14:39:47;;;;;;;;;;;29.30;79.20;;;;;;5050970;28;20431;-58
2022/08/17 14:42:17;;;;;;;;;;;29.40;79.30;;;;;;5056187;28;19943;-59
2022/08/17 14:44:44;;;;;;;;;;;29.40;79.30;;;;;;5050580;28;19929;-58
2022/08/17 14:47:13;;;;;;;;;;;29.40;79.30;;;;;;5048274;28;19932;-58
2022/08/17 14:49:41;;;;;;;;;;;29.30;79.30;;;;;;5051330;28;20356;-60
2022/08/17 14:52:09;;;;;;;;;;;29.40;79.30;;;;;;5062511;28;20000;-60
2022/08/17 14:54:37;;;;;;;;;;;29.40;79.20;;;;;;5049867;28;19940;-57
2022/08/17 14:57:11;;;;;;;;;;;29.50;79.20;;;;;;5050184;28;19925;-58
2022/08/17 14:59:58;;;;;;;;;;;29.50;79.00;;;;;;5053998;28;20538;-60
2022/08/17 15:02:27;;;;;;;;;;;29.60;79.00;;;;;;5050903;28;20396;-60
2022/08/17 15:04:57;;;;;;;;;;;29.60;79.00;;;;;;5047836;28;20299;-59
2022/08/17 15:07:24;;;;;;;;;;;29.60;79.00;;;;;;5051244;28;19929;-58
2022/08/17 15:09:58;;;;;;;;;;;29.50;78.90;;;;;;5053984;28;20047;-58
2022/08/17 15:12:28;;;;;;;;;;;29.60;79.00;;;;;;5044324;28;20305;-59
2022/08/17 15:14:59;;;;;;;;;;;29.60;79.00;;;;;;5050386;28;19935;-59
2022/08/17 15:17:27;;;;;;;;;;;29.60;79.00;;;;;;5047850;28;19943;-58
2022/08/17 15:20:16;;;;;;;;;;;29.60;78.80;;;;;;5054600;28;19929;-57
2022/08/17 15:22:45;;;;;;;;;;;29.60;78.80;;;;;;5045308;28;19940;-60
2022/08/17 15:25:12;;;;;;;;;;;29.60;78.90;;;;;;5049239;28;20199;-59